SBOSBO GCI / EGJB
Speedbird OnlineSpeedbird Online GCI / EGJB

Guernsey Airport
21:22 14°C

Location Guernsey, Guernsey
Latitude: 49.435001373291016
Longitude: -2.6019699573516846
Web Wikipedia
Altitude 102 Meter / 336 Feet
Distance 301 KM / 187 Miles
from London.
Time Zone UTC +1 hours (Europe/Guernsey)
Codes IATA: GCI
ICAO: EGJB
Currency £1 equals GGP 0.94
Runways
RunwayLength (m)Surface
091583Asphalt
271583Asphalt
Radio
TypeDescriptionFrequency
APPAPP128.65
ATISATIS109.4
GNDGND121.8
TWRTWR119.95
Live ATC
METAR EGJB 241950Z 36009KT 9999 VCSH FEW030 14/08 Q1018
TAF TAF EGJB 241656Z 2418/2503 02010KT 9999 FEW018TCU PROB40 TEMPO 2418/2503 7000 SHRA BKN015TCU
Weather As Of 24 Sep 2022 21:22
Description Few clouds
Wind 17 km/h from North (360°)
Cloud Cover 20%
Precipitation Rain: none, Snow: none
Sunrise 06:59
Sunset 19:05
Rotations During the last 90 days there were
17 flights from LCY
12 flights from EDI
17 flights to LCY
12 flights to EDI


© 2017-2022 Speedbird Online